Time;durP1;ratioP1;P1;durP2;ratioP2;P2;SDS_P1;SDS_P2;PMS_P1;PMS_P2;Temp;Humidity;BMP_temperature;BMP_pressure;BME280_temperature;BME280_humidity;BME280_pressure;Samples;Min_cycle;Max_cycle;Signal;HPM_P1;HPM_P2
2022/01/26 00:06:19;;;;;;;122.60;56.40;;;;;;;-146.64;100.00;40101.25;5068343;28;20048;-74
2022/01/26 00:08:44;;;;;;;130.20;56.45;;;;;;;-146.64;100.00;40115.56;5053170;28;20032;-74
2022/01/26 00:11:10;;;;;;;128.90;58.05;;;;;;;-146.64;100.00;40152.41;5034704;28;20032;-74
2022/01/26 00:13:35;;;;;;;127.43;56.22;;;;;;;-146.64;100.00;40129.91;5055255;28;20028;-74
2022/01/26 00:16:04;;;;;;;126.57;55.88;;;;;;;-146.64;100.00;40101.25;5056369;28;20040;-74
2022/01/26 00:18:33;;;;;;;121.53;52.95;;;;;;;-146.64;100.00;40129.91;5072976;28;20436;-74
2022/01/26 00:21:07;;;;;;;122.18;56.30;;;;;;;-146.64;100.00;40140.13;5029018;28;20033;-74
2022/01/26 00:24:05;;;;;;;130.50;56.45;;;;;;;-146.64;100.00;40129.91;5051941;28;20476;-74
2022/01/26 00:26:38;;;;;;;129.82;56.13;;;;;;;-146.64;100.00;40088.97;5050952;28;20016;-74
2022/01/26 00:29:15;;;;;;;121.53;54.15;;;;;;;-146.64;100.00;40060.31;5039147;28;20480;-74
2022/01/26 00:40:14;;;;;;;121.18;53.20;;;;;;;-146.64;100.00;40105.34;5051579;28;20040;-74
2022/01/26 00:42:42;;;;;;;121.00;56.28;;;;;;;-146.64;100.00;40027.56;5055749;28;20107;-75
2022/01/26 00:45:08;;;;;;;123.80;54.45;;;;;;;-146.64;100.00;40136.03;5071170;28;20024;-75
2022/01/26 00:47:34;;;;;;;121.80;54.33;;;;;;;-146.64;100.00;40148.31;5057282;28;20033;-75
2022/01/26 00:50:05;;;;;;;118.47;54.13;;;;;;;-146.64;100.00;40140.13;5040112;28;20032;-75
2022/01/26 00:52:41;;;;;;;125.90;54.72;;;;;;;-146.64;100.00;40119.66;5072397;28;20107;-74
2022/01/26 00:55:09;;;;;;;122.35;55.78;;;;;;;-146.64;100.00;40148.31;5035799;28;20095;-74
2022/01/26 00:57:35;;;;;;;114.65;52.88;;;;;;;-146.64;100.00;40115.56;5034051;28;20388;-75
2022/01/26 01:00:00;;;;;;;124.85;53.00;;;;;;;-146.64;100.00;40127.84;5051394;28;20107;-74
2022/01/26 01:02:26;;;;;;;120.60;54.15;;;;;;;-146.64;100.00;40140.13;5057068;28;20065;-75
2022/01/26 01:04:53;;;;;;;125.20;56.13;;;;;;;-146.64;100.00;40164.72;5054445;28;20119;-74
2022/01/26 01:07:21;;;;;;;119.83;55.27;;;;;;;-146.64;100.00;40160.63;5054962;28;20499;-74
2022/01/26 01:09:47;;;;;;;116.90;55.08;;;;;;;-146.64;100.00;40183.13;5043063;28;20300;-75
2022/01/26 01:12:13;;;;;;;123.78;55.85;;;;;;;-146.64;100.00;40191.31;5056302;28;20020;-74
2022/01/26 01:14:40;;;;;;;118.47;53.50;;;;;;;-146.64;100.00;40136.03;5072799;28;20025;-75
2022/01/26 01:17:09;;;;;;;123.38;54.83;;;;;;;-146.64;100.00;40160.63;5065195;28;20025;-74
2022/01/26 01:19:43;;;;;;;122.60;56.53;;;;;;;-146.64;100.00;40109.44;5055198;28;20017;-74
2022/01/26 01:25:33;;;;;;;127.55;54.75;;;;;;;-146.64;100.00;40172.91;5052087;28;20468;-74
2022/01/26 01:27:57;;;;;;;122.45;55.15;;;;;;;-146.64;100.00;40148.31;5066805;28;20032;-74
2022/01/26 01:30:31;;;;;;;112.47;52.45;;;;;;;-146.64;100.00;40156.50;5059591;28;20032;-74
2022/01/26 01:33:10;;;;;;;123.88;55.13;;;;;;;-146.64;100.00;40144.22;5060887;28;20033;-74
2022/01/26 01:35:39;;;;;;;123.60;55.13;;;;;;;-146.64;100.00;40152.41;5049905;28;20530;-74
2022/01/26 01:38:26;;;;;;;125.45;54.13;;;;;;;-146.64;100.00;40142.19;5073034;28;20028;-75
2022/01/26 01:40:52;;;;;;;122.33;53.03;;;;;;;-146.64;100.00;40201.56;5059537;28;20055;-74
2022/01/26 01:43:19;;;;;;;116.85;53.22;;;;;;;-146.64;100.00;40168.81;5055696;28;20327;-75
2022/01/26 01:45:49;;;;;;;119.18;54.33;;;;;;;-146.64;100.00;40146.28;5070757;28;20127;-74
2022/01/26 01:48:21;;;;;;;114.68;54.08;;;;;;;-146.64;100.00;40158.56;5072298;28;20052;-75
2022/01/26 01:50:48;;;;;;;116.28;51.78;;;;;;;-146.64;100.00;40172.91;5030832;28;20556;-74
2022/01/26 01:53:16;;;;;;;114.13;52.95;;;;;;;-146.64;100.00;40164.72;5054150;28;20548;-74
2022/01/26 01:55:49;;;;;;;116.15;53.28;;;;;;;-146.64;100.00;40156.50;5040424;28;20083;-74
2022/01/26 01:58:16;;;;;;;117.50;51.53;;;;;;;-146.64;100.00;40185.19;5029814;28;20507;-75
2022/01/26 02:00:42;;;;;;;;;;;;;;;-146.64;100.00;40164.72;5057493;28;20028;-75
2022/01/26 02:03:07;;;;;;;117.45;51.10;;;;;;;-146.64;100.00;40136.03;5044658;28;19966;-74
2022/01/26 02:05:32;;;;;;;112.30;52.83;;;;;;;-146.64;100.00;40136.03;5054833;28;20024;-74
2022/01/26 02:07:58;;;;;;;115.88;53.90;;;;;;;-146.64;100.00;40140.13;5058140;28;20021;-74
2022/01/26 02:10:25;;;;;;;114.88;53.40;;;;;;;-146.64;100.00;40152.41;5037969;28;20112;-75
2022/01/26 02:12:58;;;;;;;115.43;53.13;;;;;;;-146.64;100.00;40156.50;5072416;28;20127;-75
2022/01/26 02:15:32;;;;;;;114.50;50.97;;;;;;;-146.64;100.00;40127.84;5051220;28;20025;-74
2022/01/26 02:53:56;;;;;;;139.10;57.92;;;;;;;-146.64;100.00;40226.13;5067071;28;20096;-74
2022/01/26 02:56:42;;;;;;;133.00;55.15;;;;;;;-146.64;100.00;40189.28;5071155;28;20182;-74
2022/01/26 03:04:14;;;;;;;133.23;56.47;;;;;;;-146.64;100.00;40242.50;5050208;28;20449;-74
2022/01/26 03:06:48;;;;;;;139.73;57.92;;;;;;;-146.64;100.00;40262.97;5061040;28;20276;-74
2022/01/26 03:09:17;;;;;;;136.93;57.70;;;;;;;-146.64;100.00;40197.47;5038288;28;20020;-74
2022/01/26 03:11:45;;;;;;;140.30;58.90;;;;;;;-146.64;100.00;40234.31;5071049;28;20046;-74
2022/01/26 03:17:00;;;;;;;133.30;55.10;;;;;;;-146.64;100.00;40228.16;5041017;28;20028;-74
2022/01/26 03:19:36;;;;;;;135.63;56.97;;;;;;;-146.64;100.00;40234.31;5061489;28;20025;-75
2022/01/26 03:28:15;;;;;;;134.13;58.25;;;;;;;-146.64;100.00;40246.59;5069674;28;20581;-74
2022/01/26 03:35:18;;;;;;;140.35;59.88;;;;;;;-146.64;100.00;40217.94;5070375;28;20056;-74
2022/01/26 03:37:54;;;;;;;141.10;59.17;;;;;;;-146.64;100.00;40258.88;5053472;28;20073;-74
2022/01/26 03:40:28;;;;;;;139.60;59.03;;;;;;;-146.64;100.00;40222.03;5025127;28;20110;-74
2022/01/26 03:42:53;;;;;;;137.00;59.33;;;;;;;-146.64;100.00;40252.72;5042709;28;20384;-74
2022/01/26 03:45:18;;;;;;;143.00;59.10;;;;;;;-146.64;100.00;40226.13;5064992;28;20140;-74
2022/01/26 03:47:44;;;;;;;143.15;60.03;;;;;;;-146.64;100.00;40230.22;5070757;28;20032;-75
2022/01/26 03:50:10;;;;;;;140.00;58.43;;;;;;;-146.64;100.00;40222.03;5049722;28;20024;-74
2022/01/26 03:52:36;;;;;;;136.90;58.30;;;;;;;-146.64;100.00;40217.94;5031495;28;20288;-74
2022/01/26 03:55:01;;;;;;;140.38;58.40;;;;;;;-146.64;100.00;40226.13;5032785;28;20037;-73
2022/01/26 03:57:27;;;;;;;148.57;59.83;;;;;;;-146.64;100.00;40254.78;5069292;28;20442;-74
2022/01/26 03:59:52;;;;;;;145.05;59.83;;;;;;;-146.64;100.00;40189.28;5053518;28;20024;-75
2022/01/26 04:02:17;;;;;;;139.05;58.85;;;;;;;-146.64;100.00;40230.22;5050449;28;20225;-74
2022/01/26 04:04:49;;;;;;;148.20;58.88;;;;;;;-146.64;100.00;40267.06;5052330;28;20036;-74
2022/01/26 04:07:15;;;;;;;141.10;57.50;;;;;;;-146.64;100.00;40275.25;5053439;28;20037;-75
2022/01/26 04:09:40;;;;;;;138.82;58.85;;;;;;;-146.64;100.00;40275.25;5053456;28;20112;-74
2022/01/26 04:12:06;;;;;;;138.45;58.92;;;;;;;-146.64;100.00;40303.91;5052370;28;20115;-74
2022/01/26 04:14:33;;;;;;;136.32;57.25;;;;;;;-146.64;100.00;40287.53;5052791;28;20093;-74
2022/01/26 04:16:59;;;;;;;138.48;57.35;;;;;;;-146.64;100.00;40301.84;5032048;28;20017;-74
2022/01/26 04:19:27;;;;;;;143.57;58.78;;;;;;;-146.64;100.00;40287.53;5039313;28;20391;-74
2022/01/26 04:24:30;;;;;;;146.05;60.30;;;;;;;-146.64;100.00;40316.19;5049379;28;20033;-74
2022/01/26 04:27:01;;;;;;;136.27;57.63;;;;;;;-146.64;100.00;40340.75;5050183;28;20027;-74
2022/01/26 04:29:29;;;;;;;144.63;59.95;;;;;;;-146.64;100.00;40393.97;5049785;28;20048;-75
2022/01/26 04:31:56;;;;;;;136.70;58.15;;;;;;;-146.64;100.00;40418.53;5056714;28;20028;-74
2022/01/26 04:34:21;;;;;;;132.90;57.03;;;;;;;-146.64;100.00;40383.75;5052898;28;20346;-75
2022/01/26 04:39:20;;;;;;;134.77;58.58;;;;;;;-146.64;100.00;40455.41;5052886;28;20036;-74
2022/01/26 04:41:51;;;;;;;148.77;62.45;;;;;;;-146.64;100.00;40484.06;5070868;28;20024;-74
2022/01/26 04:44:23;;;;;;;138.95;58.40;;;;;;;-146.64;100.00;40484.06;5051873;28;20139;-74
2022/01/26 04:46:50;;;;;;;132.07;56.35;;;;;;;-146.64;100.00;40553.66;5052295;28;20437;-74
2022/01/26 04:49:16;;;;;;;144.63;60.17;;;;;;;-146.64;100.00;40580.28;5035511;28;20063;-74
2022/01/26 04:51:41;;;;;;;140.57;57.67;;;;;;;-146.64;100.00;40635.56;5069360;28;20040;-74
2022/01/26 04:54:07;;;;;;;144.02;59.47;;;;;;;-146.64;100.00;40625.31;5055253;28;20488;-74
2022/01/26 04:56:32;;;;;;;139.90;58.70;;;;;;;-146.64;100.00;40676.50;5026412;28;20076;-74
2022/01/26 04:58:57;;;;;;;141.57;57.13;;;;;;;-146.64;100.00;40696.97;5021770;28;20032;-74
2022/01/26 05:01:23;;;;;;;140.50;58.13;;;;;;;-146.64;100.00;40770.69;5048477;28;20032;-74
2022/01/26 05:03:48;;;;;;;138.27;57.47;;;;;;;-146.64;100.00;40762.47;5036203;28;20036;-74
2022/01/26 05:06:13;;;;;;;147.68;58.90;;;;;;;-146.64;100.00;40828.00;5051958;28;20024;-74
2022/01/26 05:08:39;;;;;;;144.05;57.40;;;;;;;-146.64;100.00;40852.56;5028982;28;20029;-74
2022/01/26 05:11:06;;;;;;;147.70;58.38;;;;;;;-146.64;100.00;40852.56;5056195;28;20024;-74
2022/01/26 05:13:31;;;;;;;146.05;57.03;;;;;;;-146.64;100.00;40881.22;5074160;28;20499;-76
2022/01/26 05:15:57;;;;;;;145.52;58.08;;;;;;;-146.64;100.00;40981.56;5038221;28;20032;-74
2022/01/26 05:18:24;;;;;;;136.32;55.72;;;;;;;-146.64;100.00;41045.03;5055894;28;20032;-74
2022/01/26 05:20:49;;;;;;;150.43;61.33;;;;;;;-146.64;100.00;41131.03;5055702;28;20380;-74
2022/01/26 05:23:14;;;;;;;146.65;59.58;;;;;;;-146.64;100.00;41212.94;5055698;28;20028;-74
2022/01/26 05:25:40;;;;;;;152.50;59.70;;;;;;;-146.64;100.00;41200.66;5055405;28;20039;-74
2022/01/26 05:28:05;;;;;;;152.15;59.05;;;;;;;-146.64;100.00;41343.97;5071712;28;20040;-74
2022/01/26 05:30:31;;;;;;;145.80;59.65;;;;;;;-146.64;100.00;41382.88;5052514;28;20025;-74
2022/01/26 05:32:56;;;;;;;149.93;58.92;;;;;;;-146.64;100.00;41458.66;5069209;28;20033;-75
2022/01/26 05:35:21;;;;;;;143.77;60.55;;;;;;;-146.64;100.00;41589.69;5025363;28;20020;-74
2022/01/26 05:37:47;;;;;;;143.25;58.53;;;;;;;-146.64;100.00;41700.28;5073447;28;20031;-74
2022/01/26 05:40:12;;;;;;;147.73;58.28;;;;;;;-146.64;100.00;41819.06;5050627;28;20108;-74
2022/01/26 05:42:38;;;;;;;145.85;58.08;;;;;;;-146.64;100.00;41907.13;5050920;28;20441;-74
2022/01/26 05:45:08;;;;;;;147.60;59.92;;;;;;;-146.64;100.00;42007.47;5055821;28;20112;-74
2022/01/26 05:47:34;;;;;;;150.27;59.88;;;;;;;-146.64;100.00;42040.25;5054654;28;20182;-74
2022/01/26 05:50:00;;;;;;;138.15;58.35;;;;;;;-146.64;100.00;42122.16;5059692;28;20500;-75
2022/01/26 05:52:25;;;;;;;151.95;58.83;;;;;;;-146.64;100.00;42378.19;5030425;28;20031;-74
2022/01/26 05:54:50;;;;;;;143.50;59.00;;;;;;;-146.64;100.00;42404.81;5037908;28;20076;-74
2022/01/26 05:57:16;;;;;;;141.18;58.83;;;;;;;-146.64;100.00;42580.94;5055469;28;20036;-74
2022/01/26 05:59:41;;;;;;;140.50;57.35;;;;;;;-146.64;100.00;42689.50;5055944;28;20033;-74
2022/01/26 06:02:06;;;;;;;139.95;57.10;;;;;;;-146.64;100.00;42886.16;5055532;28;20353;-74
2022/01/26 06:04:32;;;;;;;146.52;58.17;;;;;;;-146.64;100.00;42875.91;5051379;28;20393;-74
2022/01/26 06:06:58;;;;;;;149.70;58.95;;;;;;;-146.64;100.00;43056.19;5054879;28;20035;-74
2022/01/26 06:09:23;;;;;;;137.23;57.38;;;;;;;-146.64;100.00;43064.38;5034995;28;20458;-74
2022/01/26 06:11:48;;;;;;;125.20;51.85;;;;;;;-146.64;100.00;42912.78;5049470;28;20036;-74
2022/01/26 06:14:14;;;;;;;129.90;55.22;;;;;;;-146.64;100.00;42621.91;5041058;28;20357;-74
2022/01/26 06:16:39;;;;;;;131.43;52.60;;;;;;;-146.64;100.00;42742.78;5073497;28;20024;-74
2022/01/26 06:19:04;;;;;;;127.07;51.60;;;;;;;-146.64;100.00;42636.25;5055290;28;20048;-76
2022/01/26 06:21:30;;;;;;;115.85;50.65;;;;;;;-146.64;100.00;42329.03;5038022;28;20041;-74
2022/01/26 06:23:55;;;;;;;108.65;48.58;;;;;;;-146.64;100.00;41974.72;5055356;28;20031;-74
2022/01/26 06:26:20;;;;;;;90.57;41.90;;;;;;;-146.64;100.00;41386.97;5034027;28;20071;-74
2022/01/26 06:28:46;;;;;;;80.60;36.53;;;;;;;-146.64;100.00;41008.19;5050454;28;20082;-74
2022/01/26 06:31:15;;;;;;;69.97;33.30;;;;;;;-146.64;100.00;40875.09;5054606;28;20109;-74
2022/01/26 06:33:41;;;;;;;74.03;34.40;;;;;;;-146.64;100.00;40828.00;5036252;28;20095;-74
2022/01/26 06:36:12;;;;;;;76.07;34.00;;;;;;;-146.64;100.00;40868.94;5054456;28;20040;-75
2022/01/26 06:38:41;;;;;;;66.63;33.30;;;;;;;-146.64;100.00;40789.09;5063787;28;20024;-74
2022/01/26 06:41:07;;;;;;;76.13;34.15;;;;;;;-146.64;100.00;40725.63;5055855;28;20490;-74
2022/01/26 06:43:33;;;;;;;71.90;33.50;;;;;;;-146.64;100.00;40742.00;5031290;28;20031;-74
2022/01/26 06:46:03;;;;;;;71.13;34.03;;;;;;;-146.64;100.00;40660.13;5036006;28;20032;-74
2022/01/26 06:50:59;;;;;;;73.25;34.20;;;;;;;-146.64;100.00;40688.78;5055802;28;20426;-75
2022/01/26 06:53:25;;;;;;;74.43;33.50;;;;;;;-146.64;100.00;40643.75;5034958;28;20025;-74
2022/01/26 06:55:50;;;;;;;75.38;33.65;;;;;;;-146.64;100.00;40631.47;5067226;28;20563;-74
2022/01/26 06:58:16;;;;;;;72.97;33.85;;;;;;;-146.64;100.00;40656.03;5072998;28;20033;-74
2022/01/26 07:00:42;;;;;;;69.35;34.55;;;;;;;-146.64;100.00;40684.69;5055196;28;20028;-74
2022/01/26 07:03:07;;;;;;;88.97;39.20;;;;;;;-146.64;100.00;40701.06;5038041;28;20033;-74
2022/01/26 07:05:32;;;;;;;76.55;37.75;;;;;;;-146.64;100.00;40701.06;5025066;28;20256;-75
2022/01/26 07:07:58;;;;;;;87.85;41.53;;;;;;;-146.64;100.00;40766.59;5049727;28;20032;-74
2022/01/26 07:10:23;;;;;;;92.40;44.40;;;;;;;-146.64;100.00;40778.88;5054545;28;20047;-74
2022/01/26 07:12:48;;;;;;;85.68;44.13;;;;;;;-146.64;100.00;40787.06;5052986;28;20511;-74
2022/01/26 07:21:22;;;;;;;92.63;43.00;;;;;;;-146.64;100.00;40877.13;5055723;28;20456;-74
2022/01/26 07:23:37;;;;;;;89.32;43.00;;;;;;;-146.64;100.00;40897.63;5062640;28;20036;-74
2022/01/26 07:26:03;;;;;;;94.38;43.33;;;;;;;-146.64;100.00;40866.91;5053924;28;20144;-74
2022/01/26 07:28:34;;;;;;;94.07;43.75;;;;;;;-146.64;100.00;40936.50;5051909;28;20046;-74
2022/01/26 07:30:59;;;;;;;93.38;44.30;;;;;;;-146.64;100.00;40887.38;5052966;28;20025;-74
2022/01/26 07:33:25;;;;;;;90.80;43.40;;;;;;;-146.64;100.00;40901.72;5069874;28;20107;-74
2022/01/26 07:35:50;;;;;;;92.40;44.05;;;;;;;-146.64;100.00;40838.25;5050647;28;20450;-74
2022/01/26 07:38:15;;;;;;;93.35;42.33;;;;;;;-146.64;100.00;40791.16;5075808;28;20048;-73
2022/01/26 07:40:42;;;;;;;88.53;41.92;;;;;;;-146.64;100.00;40760.44;5021719;28;20915;-74
2022/01/26 07:43:07;;;;;;;95.00;41.03;;;;;;;-146.64;100.00;40680.59;5048739;28;20029;-74
2022/01/26 07:45:32;;;;;;;85.03;36.70;;;;;;;-146.64;100.00;40653.97;5031244;28;20082;-74
2022/01/26 07:47:58;;;;;;;80.28;37.25;;;;;;;-146.64;100.00;40615.06;5030739;28;20108;-74
2022/01/26 07:50:23;;;;;;;78.28;36.55;;;;;;;-146.64;100.00;40604.84;5047247;28;20047;-74
2022/01/26 07:52:49;;;;;;;71.53;33.95;;;;;;;-146.64;100.00;40590.50;5051416;28;20056;-74
2022/01/26 07:55:17;;;;;;;78.65;36.50;;;;;;;-146.64;100.00;40621.22;5049841;28;20040;-74
2022/01/26 07:57:44;;;;;;;81.03;36.20;;;;;;;-146.64;100.00;40582.31;5052011;28;20078;-74
2022/01/26 08:00:10;;;;;;;81.15;34.47;;;;;;;-146.64;100.00;40574.13;5050533;28;20027;-75
2022/01/26 08:02:35;;;;;;;74.05;35.72;;;;;;;-146.64;100.00;40594.59;5042694;28;20161;-74
2022/01/26 08:05:01;;;;;;;78.65;37.92;;;;;;;-146.64;100.00;40610.97;5046935;28;20139;-74
2022/01/26 08:07:27;;;;;;;79.32;37.28;;;;;;;-146.64;100.00;40610.97;5031387;28;20412;-74
2022/01/26 08:09:52;;;;;;;81.32;37.67;;;;;;;-146.64;100.00;40635.56;5045198;28;20494;-74
2022/01/26 08:12:18;;;;;;;81.55;38.65;;;;;;;-146.64;100.00;40643.75;5047897;28;20021;-74
2022/01/26 08:14:44;;;;;;;82.53;38.35;;;;;;;-146.64;100.00;40672.41;5047646;28;20047;-74
2022/01/26 08:17:09;;;;;;;76.80;37.10;;;;;;;-146.64;100.00;40635.56;5032905;28;20021;-74
2022/01/26 08:19:35;;;;;;;80.50;39.25;;;;;;;-146.64;100.00;40631.47;5032468;28;20081;-74
2022/01/26 08:22:02;;;;;;;80.00;37.70;;;;;;;-146.64;100.00;40670.34;5044697;28;20028;-74
2022/01/26 08:24:28;;;;;;;84.10;37.53;;;;;;;-146.64;100.00;40641.69;5056263;28;20320;-74
2022/01/26 08:26:55;;;;;;;80.75;38.92;;;;;;;-146.64;100.00;40668.31;5051451;28;20107;-74
2022/01/26 08:29:29;;;;;;;79.40;37.72;;;;;;;-146.64;100.00;40692.88;5034294;28;20017;-74
2022/01/26 08:31:54;;;;;;;75.88;35.80;;;;;;;-146.64;100.00;40676.50;5054007;28;20028;-73
2022/01/26 08:34:19;;;;;;;84.85;37.90;;;;;;;-146.64;100.00;40684.69;5058035;28;20025;-74
2022/01/26 08:36:45;;;;;;;78.93;36.25;;;;;;;-146.64;100.00;40766.59;5054457;28;20032;-74
2022/01/26 08:39:11;;;;;;;74.63;37.22;;;;;;;-146.64;100.00;40713.34;5039149;28;20043;-74
2022/01/26 08:41:36;;;;;;;76.82;35.78;;;;;;;-146.64;100.00;40668.31;5038404;28;20044;-73
2022/01/26 08:44:01;;;;;;;75.43;36.15;;;;;;;-146.64;100.00;40744.06;5050543;28;20042;-74
2022/01/26 08:46:27;;;;;;;75.15;34.50;;;;;;;-146.64;100.00;40721.53;5033011;28;20479;-73
2022/01/26 08:48:52;;;;;;;80.03;34.80;;;;;;;-146.64;100.00;40746.09;5051920;28;20020;-74
2022/01/26 08:51:18;;;;;;;78.03;33.95;;;;;;;-146.64;100.00;40774.78;5034316;28;20035;-73
2022/01/26 08:53:44;;;;;;;74.53;33.08;;;;;;;-146.64;100.00;40799.34;5072487;28;20021;-73
2022/01/26 08:56:09;;;;;;;71.95;30.95;;;;;;;-146.64;100.00;40750.19;5049906;28;20125;-73
2022/01/26 08:58:35;;;;;;;72.80;31.48;;;;;;;-146.64;100.00;40723.59;5034239;28;20037;-73
2022/01/26 09:01:00;;;;;;;72.78;31.98;;;;;;;-146.64;100.00;40785.00;5050152;28;20079;-73
2022/01/26 09:03:25;;;;;;;79.18;32.00;;;;;;;-146.64;100.00;40815.72;5061238;28;20435;-74
2022/01/26 09:05:51;;;;;;;71.32;30.70;;;;;;;-146.64;100.00;40832.09;5030495;28;20029;-74
2022/01/26 09:08:17;;;;;;;74.03;29.52;;;;;;;-146.64;100.00;40795.25;5066587;28;20033;-73
2022/01/26 09:10:43;;;;;;;71.25;30.13;;;;;;;-146.64;100.00;40807.53;5035262;28;20031;-73
2022/01/26 09:13:08;;;;;;;69.25;28.50;;;;;;;-146.64;100.00;40795.25;5031861;28;20120;-74
2022/01/26 09:15:34;;;;;;;71.18;29.35;;;;;;;-146.64;100.00;40840.28;5039892;28;20029;-73
2022/01/26 09:18:02;;;;;;;69.22;26.05;;;;;;;-146.64;100.00;40815.72;5062725;28;20534;-73
2022/01/26 09:20:28;;;;;;;74.80;30.88;;;;;;;-146.64;100.00;40834.16;5023785;28;20048;-73
2022/01/26 09:22:54;;;;;;;62.58;27.20;;;;;;;-146.64;100.00;40852.56;5049168;28;20108;-74
2022/01/26 09:25:19;;;;;;;62.70;28.30;;;;;;;-146.64;100.00;40815.72;5048888;28;20341;-73
2022/01/26 09:27:44;;;;;;;68.18;27.80;;;;;;;-146.64;100.00;40819.81;5047856;28;20108;-73
2022/01/26 09:30:10;;;;;;;67.00;28.63;;;;;;;-146.64;100.00;40801.38;5043377;28;20025;-74
2022/01/26 09:32:36;;;;;;;69.10;27.35;;;;;;;-146.64;100.00;40797.28;5032469;28;20064;-73
2022/01/26 09:35:03;;;;;;;66.30;26.92;;;;;;;-146.64;100.00;40834.16;5070072;28;20029;-73
2022/01/26 09:37:29;;;;;;;;;;;;;;;-146.64;100.00;40782.97;5051454;28;20020;-73
2022/01/26 09:39:55;;;;;;;75.72;29.75;;;;;;;-146.64;100.00;40764.53;5051285;28;19921;-73
2022/01/26 09:42:20;;;;;;;66.05;27.45;;;;;;;-146.64;100.00;40776.81;5061877;28;20090;-73
2022/01/26 09:44:45;;;;;;;67.53;27.13;;;;;;;-146.64;100.00;40807.53;5050151;28;20306;-73
2022/01/26 09:47:11;;;;;;;67.88;26.75;;;;;;;-146.64;100.00;40799.34;5043533;28;20096;-73
2022/01/26 09:49:37;;;;;;;62.47;27.60;;;;;;;-146.64;100.00;40813.66;5052407;28;20025;-73
2022/01/26 09:52:13;;;;;;;77.93;27.03;;;;;;;-146.64;100.00;40758.38;5048218;28;20021;-73
2022/01/26 09:54:42;;;;;;;61.40;27.42;;;;;;;-146.64;100.00;40750.19;5039131;28;20376;-73
2022/01/26 09:57:08;;;;;;;59.88;26.92;;;;;;;-146.64;100.00;40787.06;5036806;28;20024;-73
2022/01/26 09:59:34;;;;;;;65.70;27.83;;;;;;;-146.64;100.00;40848.47;5070493;28;20044;-73
2022/01/26 10:02:00;;;;;;;78.45;28.83;;;;;;;-146.64;100.00;40873.03;5052526;28;20361;-73
2022/01/26 10:04:33;;;;;;;62.72;28.77;;;;;;;-146.64;100.00;40717.44;5049778;28;20392;-74
2022/01/26 10:07:28;;;;;;;71.78;28.70;;;;;;;-146.64;100.00;40797.28;5069825;28;20028;-73
2022/01/26 10:10:07;;;;;;;69.20;28.75;;;;;;;-146.64;100.00;40813.66;5071136;28;20052;-73
2022/01/26 10:15:34;;;;;;;81.68;30.08;;;;;;;-146.64;100.00;40758.38;5067999;28;20586;-74
2022/01/26 10:18:04;;;;;;;80.47;28.67;;;;;;;-146.64;100.00;40721.53;5047046;28;20056;-73
2022/01/26 10:20:50;;;;;;;69.00;29.63;;;;;;;-146.64;100.00;40699.03;5050284;28;20122;-73
2022/01/26 10:23:21;;;;;;;66.53;28.63;;;;;;;-146.64;100.00;40656.03;5045468;28;20029;-73
2022/01/26 10:26:13;;;;;;;75.53;29.40;;;;;;;-146.64;100.00;40639.66;5032669;28;20028;-74
2022/01/26 10:28:44;;;;;;;74.60;27.65;;;;;;;-146.64;100.00;40643.75;5050455;28;20021;-74
2022/01/26 10:31:26;;;;;;;62.28;26.83;;;;;;;-146.64;100.00;40617.13;5052594;28;20249;-74
2022/01/26 10:34:00;;;;;;;68.40;29.55;;;;;;;-146.64;100.00;40619.19;5051845;28;20052;-74
2022/01/26 10:36:26;;;;;;;67.10;28.50;;;;;;;-146.64;100.00;40586.41;5050162;28;20036;-74
2022/01/26 10:38:57;;;;;;;69.65;29.77;;;;;;;-146.64;100.00;40590.50;5034781;28;20017;-74
2022/01/26 10:41:23;;;;;;;69.78;28.85;;;;;;;-146.64;100.00;40537.28;5067755;28;20123;-74
2022/01/26 10:43:49;;;;;;;73.88;29.73;;;;;;;-146.64;100.00;40598.69;5071127;28;20108;-74
2022/01/26 10:46:25;;;;;;;68.22;29.67;;;;;;;-146.64;100.00;40539.34;5050741;28;20071;-73
2022/01/26 10:49:05;;;;;;;67.65;29.63;;;;;;;-146.64;100.00;40570.03;5056161;28;20068;-73
2022/01/26 10:54:12;;;;;;;69.95;31.13;;;;;;;-146.64;100.00;40545.47;5049098;28;20037;-74
2022/01/26 10:56:39;;;;;;;67.65;31.58;;;;;;;-146.64;100.00;40574.13;5034049;28;20048;-73
2022/01/26 10:59:04;;;;;;;72.47;30.73;;;;;;;-146.64;100.00;40541.38;5050771;28;20025;-73
2022/01/26 11:01:29;;;;;;;68.90;30.65;;;;;;;-146.64;100.00;40512.72;5052032;28;20553;-74
2022/01/26 11:03:55;;;;;;;75.45;30.10;;;;;;;-146.64;100.00;40459.50;5054444;28;20036;-73
2022/01/26 11:06:20;;;;;;;70.90;30.27;;;;;;;-146.64;100.00;40434.91;5049911;28;20103;-73
2022/01/26 11:08:47;;;;;;;79.65;31.83;;;;;;;-146.64;100.00;40475.88;5067980;28;20044;-73
2022/01/26 11:11:23;;;;;;;82.80;33.88;;;;;;;-146.64;100.00;40410.34;5049500;28;20476;-73
2022/01/26 11:13:49;;;;;;;62.97;30.00;;;;;;;-146.64;100.00;40410.34;5044545;28;20028;-73
2022/01/26 11:16:16;;;;;;;68.43;30.63;;;;;;;-146.64;100.00;40393.97;5049599;28;20033;-73
2022/01/26 11:18:46;;;;;;;71.43;31.92;;;;;;;-146.64;100.00;40365.31;5025923;28;20024;-74
2022/01/26 11:21:16;;;;;;;73.22;29.20;;;;;;;-146.64;100.00;40336.66;5052253;28;20494;-73
2022/01/26 11:23:41;;;;;;;72.47;30.13;;;;;;;-146.64;100.00;40338.72;5041597;28;20056;-74
2022/01/26 11:26:21;;;;;;;62.75;29.92;;;;;;;-146.64;100.00;40369.41;5050874;28;20674;-74
2022/01/26 11:28:46;;;;;;;70.20;31.48;;;;;;;-146.64;100.00;40283.44;5044531;28;20056;-73
2022/01/26 11:31:15;;;;;;;60.85;29.75;;;;;;;-146.64;100.00;40283.44;5039749;28;20067;-73
2022/01/26 11:33:40;;;;;;;71.70;30.30;;;;;;;-146.64;100.00;40277.28;5027630;28;20045;-73
2022/01/26 11:36:06;;;;;;;70.07;31.38;;;;;;;-146.64;100.00;40283.44;5043344;28;20505;-74
2022/01/26 11:46:56;;;;;;;64.70;28.80;;;;;;;-146.64;100.00;40070.53;5068481;28;20035;-74
2022/01/26 11:49:32;;;;;;;65.80;29.00;;;;;;;-146.64;100.00;40189.28;5039980;28;20055;-74
2022/01/26 11:51:58;;;;;;;63.78;28.27;;;;;;;-146.64;100.00;40179.03;5067437;28;20072;-73
2022/01/26 11:54:28;;;;;;;61.80;29.00;;;;;;;-146.64;100.00;40189.28;5050201;28;20067;-73
2022/01/26 11:57:08;;;;;;;58.33;27.50;;;;;;;-146.64;100.00;40134.00;5069625;28;20063;-73
2022/01/26 11:59:37;;;;;;;56.38;27.48;;;;;;;-146.64;100.00;40197.47;5048795;28;20437;-73
2022/01/26 12:02:09;;;;;;;59.67;27.73;;;;;;;-146.64;100.00;40144.22;5047164;28;20028;-73
2022/01/26 12:04:37;;;;;;;60.50;27.25;;;;;;;-146.64;100.00;40101.25;5039928;28;20078;-74
2022/01/26 12:07:18;;;;;;;51.92;25.75;;;;;;;-146.64;100.00;40080.78;5042283;28;20055;-73
2022/01/26 12:09:43;;;;;;;57.72;25.63;;;;;;;-146.64;100.00;40058.25;5047030;28;20032;-74
2022/01/26 12:12:16;;;;;;;58.53;26.10;;;;;;;-146.64;100.00;40058.25;5064140;28;20032;-73
2022/01/26 12:14:41;;;;;;;56.65;25.65;;;;;;;-146.64;100.00;40095.09;5055658;28;20024;-73
2022/01/26 12:17:12;;;;;;;58.20;25.58;;;;;;;-146.64;100.00;40058.25;5056709;28;20123;-73
2022/01/26 12:19:52;;;;;;;54.85;26.30;;;;;;;-146.64;100.00;40058.25;5053917;28;20468;-74
2022/01/26 12:32:09;;;;;;;50.72;25.88;;;;;;;-146.64;100.00;40041.88;5044950;28;20107;-73
2022/01/26 12:36:30;;;;;;;56.88;26.90;;;;;;;-146.64;100.00;39996.84;5055056;28;20028;-73
2022/01/26 12:38:57;;;;;;;57.08;30.17;;;;;;;-146.64;100.00;40043.94;5062353;28;20052;-73
2022/01/26 12:41:33;;;;;;;60.35;30.52;;;;;;;-146.64;100.00;40101.25;5057460;28;20031;-73
2022/01/26 12:44:06;;;;;;;66.57;31.98;;;;;;;-146.64;100.00;40111.47;5058008;28;20163;-73
2022/01/26 12:46:34;;;;;;;68.15;30.33;;;;;;;-146.64;100.00;40146.28;5068143;28;20104;-73